Fremont, CA

11:45 AM PDT on September 21, 2014 (GMT -0700)
Ponderosa Heights | Change Station
CLOSE
Current Station
Personal Weather Station
Location: Fremont, CA
Elevation: 541 ft
Nearby Weather Stations

Elev 541 ft 37.47 °N, 121.89 °W | Updated 5 minutes ago

Overcast
Overcast
69.1 °F
Feels Like 69.1 °F
N
1.0
Wind Variable Wind from West
Gusts 8.0 mph

Today
High -- | Low -- °F
--% Chance of Precip.
Yesterday
High -- | Low -- °F
Precip. -- in
6:54 AM 7:05 PM
Waning Crescent, 6% visible
Pressure 30.02 in
Visibility 10.0 miles
Clouds Scattered Clouds 2200 ft
Dew Point 60 °F
Humidity 73%
Rainfall 0.00 in
Snow Depth 0 in , 0 in , 0 in
UV 5 out of 12
Pollen 3.80 out of 12
PM2.5 Good
Flu Activity Not available.
SPECI KNUQ 211813Z VRB04KT 10SM SCT022 22/14 A3002 RMK AO2

More Conditions Fewer Conditions

Pressure 30.02 in
Visibility 10.0 miles
Clouds Scattered Clouds 2200 ft
Dew Point 60 °F
Humidity 73%
Rainfall 0.00 in
Snow Depth 0 in , 0 in , 0 in
UV 5 out of 12
Pollen 3.80 out of 12
PM2.5 Good
Flu Activity Not available.
SPECI KNUQ 211813Z VRB04KT 10SM SCT022 22/14 A3002 RMK AO2

More Conditions Fewer Conditions

10-Day Weather Forecast

Almanac

Astronomy

Sep. 21, 2014 Rise Set
Actual Time 6:54 AM PDT 7:05 PM PDT
Civil Twilight 6:28 AM PDT 7:31 PM PDT
Nautical Twilight 5:58 AM PDT 8:02 PM PDT
Astronomical Twilight 5:26 AM PDT 8:33 PM PDT
Moon 4:35 AM PDT 5:43 PM PDT
Length of Visible Light 13h 03m
Length of Day
12h 11m
Tomorrow will be 2m 23s shorter.
Waning Crescent, 6% of the Moon is Illuminated
Today
Waning Crescent
Sep 24
New
Oct 1
First Quarter
Oct 8
Full
Oct 15
Last Quarter

Today's Extremes

State Highs State Lows

Community

WunderPhotos

Upload Photos

1,755,211 photos uploaded!

WunderBlogs® & News

Nearby

Air Quality

  Air Quality AQ Index Pollutant
Yesterday Good
PM2.5
Yesterday Good
OZONE
Current Good
PM2.5
Sunday Moderate
PM2.5
Monday Good
PM2.5
Tuesday Good
PM2.5
Wednesday Good
OZONE
Thursday Good
OZONE
Friday Good
OZONE

Snow Depth

Station Depth Elevation
Echo Peak 0 in 7800 ft
Summit Meadow 0 in 9122 ft
Adin Mountain 0 in 6200 ft
Tahoe City Cross 0 in 6750 ft
Rubicon #2 0 in 7500 ft

Earthquake Activity

City Distance Mag. Time & Date
Cloverdale, California 107 miles 2.5 9:15 PM PDT
2014-09-20
Livermore, California 16 miles 2.6 3:37 AM PDT
2014-09-19
The Geysers, California 98 miles 2.5 11:29 PM PDT
2014-09-17
Minimum magnitude displayed is 2.5.

Coastal Water Temperatures

Place Temperature
No Stations Reporting

Nearby Weather Stations